sensor_id;sensor_type;location;lat;lon;timestamp;pressure;altitude;pressure_sealevel;temperature;humidity
43818;BME280;29868;47.360;18.984;2023-02-28T12:12:02;101461.81;;;7.88;50.08
43818;BME280;29868;47.360;18.984;2023-02-28T12:14:47;101462.06;;;7.55;49.72
43818;BME280;29868;47.360;18.984;2023-02-28T12:17:22;101453.13;;;7.88;49.73
43818;BME280;29868;47.360;18.984;2023-02-28T12:23:15;101458.47;;;7.34;51.61
43818;BME280;29868;47.360;18.984;2023-02-28T12:27:51;101447.34;;;8.13;50.50
43818;BME280;29868;47.360;18.984;2023-02-28T12:30:25;101442.31;;;7.96;49.58
43818;BME280;29868;47.360;18.984;2023-02-28T12:33:03;101452.50;;;8.13;49.06
43818;BME280;29868;47.360;18.984;2023-02-28T12:35:52;101449.13;;;7.55;50.61
43818;BME280;29868;47.360;18.984;2023-02-28T12:41:02;101438.66;;;7.52;51.53
43818;BME280;29868;47.360;18.984;2023-02-28T12:43:34;101445.19;;;7.64;51.15
43818;BME280;29868;47.360;18.984;2023-02-28T12:46:09;101439.06;;;7.62;51.08
43818;BME280;29868;47.360;18.984;2023-02-28T12:48:42;101436.19;;;7.55;51.58
43818;BME280;29868;47.360;18.984;2023-02-28T12:51:09;101435.22;;;7.34;51.77
43818;BME280;29868;47.360;18.984;2023-02-28T12:54:16;101430.16;;;7.18;52.83
43818;BME280;29868;47.360;18.984;2023-02-28T12:57:09;101427.59;;;7.18;53.31
43818;BME280;29868;47.360;18.984;2023-02-28T12:59:51;101421.63;;;7.38;52.49
43818;BME280;29868;47.360;18.984;2023-02-28T13:11:29;101413.63;;;7.51;51.66
43818;BME280;29868;47.360;18.984;2023-02-28T13:14:01;101413.66;;;7.53;52.13
43818;BME280;29868;47.360;18.984;2023-02-28T13:16:27;101409.84;;;7.25;52.18
43818;BME280;29868;47.360;18.984;2023-02-28T13:19:08;101412.53;;;7.66;52.92
43818;BME280;29868;47.360;18.984;2023-02-28T13:21:42;101406.41;;;7.44;51.44
43818;BME280;29868;47.360;18.984;2023-02-28T13:24:08;101412.03;;;6.98;53.36
43818;BME280;29868;47.360;18.984;2023-02-28T13:27:10;101405.56;;;7.26;52.47
43818;BME280;29868;47.360;18.984;2023-02-28T13:29:42;101403.19;;;7.30;52.17
43818;BME280;29868;47.360;18.984;2023-02-28T13:47:39;101396.88;;;7.43;54.44
43818;BME280;29868;47.360;18.984;2023-02-28T13:55:26;101392.63;;;7.06;54.05
43818;BME280;29868;47.360;18.984;2023-02-28T14:05:46;101380.06;;;7.34;54.10
43818;BME280;29868;47.360;18.984;2023-02-28T14:08:18;101379.03;;;7.11;56.18
43818;BME280;29868;47.360;18.984;2023-02-28T14:10:48;101363.97;;;7.20;55.87
43818;BME280;29868;47.360;18.984;2023-02-28T14:13:43;101371.56;;;7.17;55.88
43818;BME280;29868;47.360;18.984;2023-02-28T14:16:23;101380.06;;;6.96;56.28
43818;BME280;29868;47.360;18.984;2023-02-28T14:18:50;101367.56;;;6.86;56.03
43818;BME280;29868;47.360;18.984;2023-02-28T14:26:55;101369.88;;;6.99;57.69
43818;BME280;29868;47.360;18.984;2023-02-28T14:32:33;101369.81;;;6.61;57.26
43818;BME280;29868;47.360;18.984;2023-02-28T14:37:34;101366.94;;;6.92;56.89
43818;BME280;29868;47.360;18.984;2023-02-28T14:40:04;101370.91;;;7.03;57.87
43818;BME280;29868;47.360;18.984;2023-02-28T14:42:36;101373.00;;;6.92;58.05
43818;BME280;29868;47.360;18.984;2023-02-28T14:45:20;101363.66;;;6.76;57.45
43818;BME280;29868;47.360;18.984;2023-02-28T14:47:46;101364.69;;;6.80;58.03
43818;BME280;29868;47.360;18.984;2023-02-28T14:50:21;101373.69;;;6.70;58.46
43818;BME280;29868;47.360;18.984;2023-02-28T14:52:51;101369.84;;;6.80;59.88
43818;BME280;29868;47.360;18.984;2023-02-28T14:55:18;101364.63;;;6.78;61.04
43818;BME280;29868;47.360;18.984;2023-02-28T14:57:56;101370.16;;;6.86;61.48
43818;BME280;29868;47.360;18.984;2023-02-28T15:00:26;101374.72;;;6.74;62.49
43818;BME280;29868;47.360;18.984;2023-02-28T15:02:52;101374.44;;;6.68;63.02
43818;BME280;29868;47.360;18.984;2023-02-28T15:05:30;101373.31;;;6.63;63.42
43818;BME280;29868;47.360;18.984;2023-02-28T15:08:16;101371.72;;;6.65;63.70
43818;BME280;29868;47.360;18.984;2023-02-28T15:10:57;101367.53;;;6.49;63.79
43818;BME280;29868;47.360;18.984;2023-02-28T15:13:41;101371.06;;;6.33;64.88
43818;BME280;29868;47.360;18.984;2023-02-28T15:16:14;101366.69;;;6.32;65.78
43818;BME280;29868;47.360;18.984;2023-02-28T15:21:16;101370.41;;;6.37;67.19
43818;BME280;29868;47.360;18.984;2023-02-28T15:23:46;101362.78;;;6.22;65.80
43818;BME280;29868;47.360;18.984;2023-02-28T15:26:16;101365.94;;;6.17;66.54
43818;BME280;29868;47.360;18.984;2023-02-28T15:28:45;101362.63;;;6.19;66.84
43818;BME280;29868;47.360;18.984;2023-02-28T15:31:32;101360.34;;;6.07;66.71
43818;BME280;29868;47.360;18.984;2023-02-28T15:34:03;101369.78;;;6.07;66.91
43818;BME280;29868;47.360;18.984;2023-02-28T15:36:32;101365.78;;;6.14;68.09
43818;BME280;29868;47.360;18.984;2023-02-28T15:39:00;101367.38;;;5.94;69.19
43818;BME280;29868;47.360;18.984;2023-02-28T15:41:30;101370.09;;;5.97;69.36
43818;BME280;29868;47.360;18.984;2023-02-28T15:44:27;101364.09;;;5.80;68.26
43818;BME280;29868;47.360;18.984;2023-02-28T15:47:04;101365.22;;;5.69;69.98
43818;BME280;29868;47.360;18.984;2023-02-28T15:49:34;101366.19;;;5.54;69.82
43818;BME280;29868;47.360;18.984;2023-02-28T15:52:02;101364.81;;;5.45;70.40
43818;BME280;29868;47.360;18.984;2023-02-28T15:54:33;101360.97;;;5.36;72.04
43818;BME280;29868;47.360;18.984;2023-02-28T15:57:07;101366.91;;;5.52;71.10
43818;BME280;29868;47.360;18.984;2023-02-28T15:59:38;101364.28;;;5.50;71.69
43818;BME280;29868;47.360;18.984;2023-02-28T16:02:34;101367.00;;;5.37;72.99
43818;BME280;29868;47.360;18.984;2023-02-28T16:07:28;101366.75;;;5.32;74.47
43818;BME280;29868;47.360;18.984;2023-02-28T16:09:54;101365.41;;;5.39;74.77
43818;BME280;29868;47.360;18.984;2023-02-28T16:12:20;101370.16;;;5.31;73.91
43818;BME280;29868;47.360;18.984;2023-02-28T16:14:51;101370.56;;;5.23;74.11
43818;BME280;29868;47.360;18.984;2023-02-28T16:17:23;101375.38;;;5.17;75.17
43818;BME280;29868;47.360;18.984;2023-02-28T16:19:49;101374.56;;;5.18;75.03
43818;BME280;29868;47.360;18.984;2023-02-28T16:22:15;101379.41;;;5.11;74.67
43818;BME280;29868;47.360;18.984;2023-02-28T16:24:40;101384.84;;;5.01;75.97
43818;BME280;29868;47.360;18.984;2023-02-28T16:27:06;101381.00;;;5.09;75.14
43818;BME280;29868;47.360;18.984;2023-02-28T16:29:39;101388.47;;;5.05;75.50
43818;BME280;29868;47.360;18.984;2023-02-28T16:32:05;101386.59;;;5.02;76.63
43818;BME280;29868;47.360;18.984;2023-02-28T16:34:31;101382.91;;;4.97;77.68
43818;BME280;29868;47.360;18.984;2023-02-28T16:36:57;101381.56;;;5.04;77.94
43818;BME280;29868;47.360;18.984;2023-02-28T16:39:23;101381.63;;;5.05;78.77
43818;BME280;29868;47.360;18.984;2023-02-28T16:41:50;101384.66;;;4.98;79.95
43818;BME280;29868;47.360;18.984;2023-02-28T16:44:36;101392.16;;;5.10;78.93
43818;BME280;29868;47.360;18.984;2023-02-28T16:47:01;101394.25;;;5.01;80.28
43818;BME280;29868;47.360;18.984;2023-02-28T16:49:28;101398.44;;;4.99;81.73
43818;BME280;29868;47.360;18.984;2023-02-28T16:51:54;101404.13;;;4.93;81.53
43818;BME280;29868;47.360;18.984;2023-02-28T16:54:19;101398.25;;;4.96;81.49
43818;BME280;29868;47.360;18.984;2023-02-28T16:56:47;101405.09;;;4.95;82.62
43818;BME280;29868;47.360;18.984;2023-02-28T16:59:15;101409.28;;;4.93;83.15
43818;BME280;29868;47.360;18.984;2023-02-28T17:01:43;101400.94;;;4.97;84.06
43818;BME280;29868;47.360;18.984;2023-02-28T17:04:10;101409.44;;;4.96;83.60
43818;BME280;29868;47.360;18.984;2023-02-28T17:06:36;101404.28;;;4.96;84.40
43818;BME280;29868;47.360;18.984;2023-02-28T17:09:01;101401.88;;;4.99;84.16
43818;BME280;29868;47.360;18.984;2023-02-28T17:11:27;101413.88;;;4.99;85.02
43818;BME280;29868;47.360;18.984;2023-02-28T17:13:52;101415.22;;;4.92;85.26
43818;BME280;29868;47.360;18.984;2023-02-28T17:16:32;101419.47;;;4.92;86.98
43818;BME280;29868;47.360;18.984;2023-02-28T17:19:00;101417.66;;;4.89;86.49
43818;BME280;29868;47.360;18.984;2023-02-28T17:21:27;101419.06;;;4.84;85.78
43818;BME280;29868;47.360;18.984;2023-02-28T17:23:52;101415.78;;;4.86;87.19
43818;BME280;29868;47.360;18.984;2023-02-28T17:26:20;101420.50;;;4.79;88.79
43818;BME280;29868;47.360;18.984;2023-02-28T17:28:46;101409.75;;;4.86;87.42
43818;BME280;29868;47.360;18.984;2023-02-28T17:31:12;101412.66;;;4.92;86.67
43818;BME280;29868;47.360;18.984;2023-02-28T17:33:38;101416.41;;;4.82;87.80
43818;BME280;29868;47.360;18.984;2023-02-28T17:36:03;101413.41;;;4.75;89.74
43818;BME280;29868;47.360;18.984;2023-02-28T17:38:29;101417.47;;;4.86;89.28
43818;BME280;29868;47.360;18.984;2023-02-28T17:40:54;101413.72;;;4.81;89.41
43818;BME280;29868;47.360;18.984;2023-02-28T17:43:26;101418.09;;;4.82;89.52
43818;BME280;29868;47.360;18.984;2023-02-28T17:45:52;101421.13;;;4.75;92.62
43818;BME280;29868;47.360;18.984;2023-02-28T17:48:18;101416.94;;;4.77;92.56
43818;BME280;29868;47.360;18.984;2023-02-28T17:50:44;101430.81;;;4.79;91.76
43818;BME280;29868;47.360;18.984;2023-02-28T17:53:09;101422.09;;;4.77;91.05
43818;BME280;29868;47.360;18.984;2023-02-28T17:55:35;101423.78;;;4.76;91.15
43818;BME280;29868;47.360;18.984;2023-02-28T17:58:01;101431.63;;;4.78;90.69
43818;BME280;29868;47.360;18.984;2023-02-28T18:00:28;101423.28;;;4.67;90.94
43818;BME280;29868;47.360;18.984;2023-02-28T18:02:53;101430.81;;;4.79;90.04
43818;BME280;29868;47.360;18.984;2023-02-28T18:05:19;101432.94;;;4.71;91.30
43818;BME280;29868;47.360;18.984;2023-02-28T18:07:44;101438.28;;;4.59;91.93
43818;BME280;29868;47.360;18.984;2023-02-28T18:10:16;101429.66;;;4.74;89.70
43818;BME280;29868;47.360;18.984;2023-02-28T18:12:48;101434.81;;;4.74;90.62
43818;BME280;29868;47.360;18.984;2023-02-28T18:15:15;101427.97;;;4.74;90.75
43818;BME280;29868;47.360;18.984;2023-02-28T18:17:41;101426.91;;;4.71;92.38
43818;BME280;29868;47.360;18.984;2023-02-28T18:20:07;101427.13;;;4.59;93.19
43818;BME280;29868;47.360;18.984;2023-02-28T18:22:34;101429.31;;;4.53;94.96
43818;BME280;29868;47.360;18.984;2023-02-28T18:25:01;101434.38;;;4.66;93.13
43818;BME280;29868;47.360;18.984;2023-02-28T18:27:26;101433.81;;;4.72;91.40
43818;BME280;29868;47.360;18.984;2023-02-28T18:29:52;101439.16;;;4.60;93.55
43818;BME280;29868;47.360;18.984;2023-02-28T18:32:17;101433.31;;;4.62;92.65
43818;BME280;29868;47.360;18.984;2023-02-28T18:34:43;101441.19;;;4.66;92.04
43818;BME280;29868;47.360;18.984;2023-02-28T18:37:08;101433.47;;;4.66;93.24
43818;BME280;29868;47.360;18.984;2023-02-28T18:39:37;101438.63;;;4.66;93.48
43818;BME280;29868;47.360;18.984;2023-02-28T18:42:02;101435.03;;;4.47;96.20
43818;BME280;29868;47.360;18.984;2023-02-28T18:44:28;101443.25;;;4.56;97.89
43818;BME280;29868;47.360;18.984;2023-02-28T18:46:53;101443.88;;;4.52;97.85
43818;BME280;29868;47.360;18.984;2023-02-28T18:49:19;101440.94;;;4.46;99.38
43818;BME280;29868;47.360;18.984;2023-02-28T18:51:44;101437.94;;;4.53;99.25
43818;BME280;29868;47.360;18.984;2023-02-28T18:54:12;101441.81;;;4.61;96.66
43818;BME280;29868;47.360;18.984;2023-02-28T18:56:38;101432.44;;;4.47;97.77
43818;BME280;29868;47.360;18.984;2023-02-28T18:59:03;101427.81;;;4.42;98.44
43818;BME280;29868;47.360;18.984;2023-02-28T19:01:29;101428.34;;;4.51;98.03
43818;BME280;29868;47.360;18.984;2023-02-28T19:03:57;101419.28;;;4.57;97.98
43818;BME280;29868;47.360;18.984;2023-02-28T19:06:24;101426.69;;;4.51;98.52
43818;BME280;29868;47.360;18.984;2023-02-28T19:08:57;101425.31;;;4.43;99.58
43818;BME280;29868;47.360;18.984;2023-02-28T19:11:23;101420.28;;;4.45;100.00
43818;BME280;29868;47.360;18.984;2023-02-28T19:13:49;101415.84;;;4.42;100.00
43818;BME280;29868;47.360;18.984;2023-02-28T19:16:17;101423.94;;;4.48;100.00
43818;BME280;29868;47.360;18.984;2023-02-28T19:18:43;101432.44;;;4.47;100.00
43818;BME280;29868;47.360;18.984;2023-02-28T19:21:10;101430.47;;;4.43;100.00
43818;BME280;29868;47.360;18.984;2023-02-28T19:23:37;101428.34;;;4.51;100.00
43818;BME280;29868;47.360;18.984;2023-02-28T19:26:07;101416.09;;;4.61;99.22
43818;BME280;29868;47.360;18.984;2023-02-28T19:28:33;101431.44;;;4.60;98.93
43818;BME280;29868;47.360;18.984;2023-02-28T19:30:58;101427.75;;;4.55;98.91
43818;BME280;29868;47.360;18.984;2023-02-28T19:33:24;101424.19;;;4.53;99.69
43818;BME280;29868;47.360;18.984;2023-02-28T19:35:50;101423.19;;;4.51;100.00
43818;BME280;29868;47.360;18.984;2023-02-28T19:38:15;101430.31;;;4.40;100.00
43818;BME280;29868;47.360;18.984;2023-02-28T19:40:41;101423.22;;;4.36;100.00
43818;BME280;29868;47.360;18.984;2023-02-28T19:43:06;101428.53;;;4.39;100.00
43818;BME280;29868;47.360;18.984;2023-02-28T19:45:34;101420.38;;;4.31;100.00
43818;BME280;29868;47.360;18.984;2023-02-28T19:47:59;101427.75;;;4.25;100.00
43818;BME280;29868;47.360;18.984;2023-02-28T19:50:25;101428.72;;;4.42;100.00
43818;BME280;29868;47.360;18.984;2023-02-28T19:52:50;101423.81;;;4.47;100.00
43818;BME280;29868;47.360;18.984;2023-02-28T19:55:16;101424.81;;;4.34;100.00
43818;BME280;29868;47.360;18.984;2023-02-28T19:57:42;101429.06;;;4.33;100.00
43818;BME280;29868;47.360;18.984;2023-02-28T20:00:10;101433.66;;;4.54;100.00
43818;BME280;29868;47.360;18.984;2023-02-28T20:02:35;101431.53;;;4.47;100.00
43818;BME280;29868;47.360;18.984;2023-02-28T20:05:02;101436.25;;;4.39;100.00
43818;BME280;29868;47.360;18.984;2023-02-28T20:07:27;101433.53;;;4.36;100.00
43818;BME280;29868;47.360;18.984;2023-02-28T20:09:52;101440.75;;;4.43;100.00
43818;BME280;29868;47.360;18.984;2023-02-28T20:12:18;101436.25;;;4.39;100.00
43818;BME280;29868;47.360;18.984;2023-02-28T20:14:48;101431.53;;;4.47;100.00
43818;BME280;29868;47.360;18.984;2023-02-28T20:17:13;101429.16;;;4.35;100.00
43818;BME280;29868;47.360;18.984;2023-02-28T20:19:39;101421.16;;;4.15;100.00
43818;BME280;29868;47.360;18.984;2023-02-28T20:22:04;101432.00;;;4.25;100.00
43818;BME280;29868;47.360;18.984;2023-02-28T20:24:32;101420.91;;;4.26;100.00
43818;BME280;29868;47.360;18.984;2023-02-28T20:26:57;101423.38;;;4.39;100.00
43818;BME280;29868;47.360;18.984;2023-02-28T20:29:23;101422.50;;;4.24;100.00
43818;BME280;29868;47.360;18.984;2023-02-28T20:31:48;101427.56;;;4.22;100.00
43818;BME280;29868;47.360;18.984;2023-02-28T20:34:14;101430.94;;;4.21;100.00
43818;BME280;29868;47.360;18.984;2023-02-28T20:36:41;101426.94;;;4.26;100.00
43818;BME280;29868;47.360;18.984;2023-02-28T20:39:07;101430.31;;;4.40;100.00
43818;BME280;29868;47.360;18.984;2023-02-28T20:41:32;101422.69;;;4.27;100.00
43818;BME280;29868;47.360;18.984;2023-02-28T20:43:58;101421.72;;;4.25;100.00
43818;BME280;29868;47.360;18.984;2023-02-28T20:46:26;101420.47;;;4.18;100.00
43818;BME280;29868;47.360;18.984;2023-02-28T20:48:51;101422.34;;;4.21;100.00
43818;BME280;29868;47.360;18.984;2023-02-28T20:51:17;101430.84;;;4.20;100.00
43818;BME280;29868;47.360;18.984;2023-02-28T20:53:42;101425.44;;;4.15;100.00
43818;BME280;29868;47.360;18.984;2023-02-28T20:56:16;101428.53;;;4.24;100.00
43818;BME280;29868;47.360;18.984;2023-02-28T20:58:44;101422.16;;;4.18;100.00
43818;BME280;29868;47.360;18.984;2023-02-28T21:01:11;101433.34;;;4.18;100.00
43818;BME280;29868;47.360;18.984;2023-02-28T21:03:51;101426.69;;;4.22;100.00
43818;BME280;29868;47.360;18.984;2023-02-28T21:06:19;101428.44;;;4.23;100.00
43818;BME280;29868;47.360;18.984;2023-02-28T21:08:45;101430.84;;;4.20;100.00
43818;BME280;29868;47.360;18.984;2023-02-28T21:11:13;101425.34;;;4.13;100.00
43818;BME280;29868;47.360;18.984;2023-02-28T21:13:39;101421.97;;;4.14;100.00
43818;BME280;29868;47.360;18.984;2023-02-28T21:16:07;101430.41;;;4.27;100.00
43818;BME280;29868;47.360;18.984;2023-02-28T21:18:34;101423.94;;;4.33;100.00
43818;BME280;29868;47.360;18.984;2023-02-28T21:21:10;101424.00;;;4.20;100.00
43818;BME280;29868;47.360;18.984;2023-02-28T21:23:35;101427.81;;;4.27;100.00
43818;BME280;29868;47.360;18.984;2023-02-28T21:26:06;101417.34;;;4.24;100.00
43818;BME280;29868;47.360;18.984;2023-02-28T21:28:32;101415.78;;;4.26;100.00
43818;BME280;29868;47.360;18.984;2023-02-28T21:31:05;101417.19;;;4.21;100.00
43818;BME280;29868;47.360;18.984;2023-02-28T21:33:32;101426.56;;;4.20;100.00
43818;BME280;29868;47.360;18.984;2023-02-28T21:36:06;101417.19;;;4.21;100.00
43818;BME280;29868;47.360;18.984;2023-02-28T21:38:33;101415.22;;;4.17;100.00
43818;BME280;29868;47.360;18.984;2023-02-28T21:41:09;101413.63;;;4.19;100.00
43818;BME280;29868;47.360;18.984;2023-02-28T21:43:35;101417.72;;;4.30;100.00
43818;BME280;29868;47.360;18.984;2023-02-28T21:46:05;101420.28;;;4.30;100.00
43818;BME280;29868;47.360;18.984;2023-02-28T21:48:31;101421.72;;;4.25;100.00
43818;BME280;29868;47.360;18.984;2023-02-28T21:51:02;101416.03;;;4.15;100.00
43818;BME280;29868;47.360;18.984;2023-02-28T21:53:29;101411.88;;;4.32;100.00
43818;BME280;29868;47.360;18.984;2023-02-28T21:55:59;101420.81;;;4.24;100.00
43818;BME280;29868;47.360;18.984;2023-02-28T21:58:24;101421.44;;;4.35;100.00
43818;BME280;29868;47.360;18.984;2023-02-28T22:00:50;101419.66;;;4.34;100.00
43818;BME280;29868;47.360;18.984;2023-02-28T22:03:15;101411.50;;;4.26;100.00
43818;BME280;29868;47.360;18.984;2023-02-28T22:05:41;101412.84;;;4.20;100.00
43818;BME280;29868;47.360;18.984;2023-02-28T22:08:07;101406.72;;;4.18;100.00
43818;BME280;29868;47.360;18.984;2023-02-28T22:10:34;101417.97;;;4.20;100.00
43818;BME280;29868;47.360;18.984;2023-02-28T22:13:00;101417.19;;;4.21;100.00
43818;BME280;29868;47.360;18.984;2023-02-28T22:15:34;101409.38;;;4.19;100.00
43818;BME280;29868;47.360;18.984;2023-02-28T22:17:59;101409.81;;;4.27;100.00
43818;BME280;29868;47.360;18.984;2023-02-28T22:20:24;101412.41;;;4.27;100.00
43818;BME280;29868;47.360;18.984;2023-02-28T22:22:50;101412.56;;;4.30;100.00
